Time;durP1;ratioP1;P1;durP2;ratioP2;P2;SDS_P1;SDS_P2;PMS_P1;PMS_P2;Temp;Humidity;BMP_temperature;BMP_pressure;BME280_temperature;BME280_humidity;BME280_pressure;Samples;Min_cycle;Max_cycle;Signal;HPM_P1;HPM_P2
2022/03/24 00:02:37;;;;;;;53.40;28.00;;;;;;;2.65;41.28;101349.66;130321;1268;99174;-77
2022/03/24 00:05:40;;;;;;;53.70;29.00;;;;;;;2.62;41.49;101353.66;130358;1268;98052;-77
2022/03/24 00:08:42;;;;;;;57.50;30.60;;;;;;;2.60;41.67;101350.10;130386;1268;99053;-77
2022/03/24 00:11:46;;;;;;;55.20;29.10;;;;;;;2.58;41.74;101351.95;130316;1268;99152;-74
2022/03/24 00:14:49;;;;;;;61.50;31.20;;;;;;;2.54;41.94;101349.11;130363;1267;97975;-76
2022/03/24 00:17:52;;;;;;;54.50;28.80;;;;;;;2.57;41.94;101345.14;130327;1267;99198;-76
2022/03/24 00:20:55;;;;;;;55.40;29.10;;;;;;;2.58;41.93;101346.64;130425;1268;97962;-76
2022/03/24 00:23:58;;;;;;;47.30;26.50;;;;;;;2.60;41.90;101348.67;130235;1268;151934;-76
2022/03/24 00:27:00;;;;;;;53.10;27.60;;;;;;;2.57;41.98;101346.16;130343;1267;98762;-76
2022/03/24 00:30:05;;;;;;;52.50;28.60;;;;;;;2.52;42.15;101344.64;130349;1268;98055;-75
2022/03/24 00:33:08;;;;;;;54.40;27.80;;;;;;;2.46;42.17;101342.83;130422;1268;112298;-74
2022/03/24 00:36:11;;;;;;;51.80;27.00;;;;;;;2.34;42.13;101343.23;130446;1268;98748;-75
2022/03/24 00:39:14;;;;;;;55.90;27.60;;;;;;;2.30;42.28;101347.27;130402;1268;112398;-76
2022/03/24 00:42:17;;;;;;;46.80;26.30;;;;;;;2.28;42.32;101347.18;130342;1268;98076;-76
2022/03/24 00:45:20;;;;;;;49.80;27.50;;;;;;;2.22;42.33;101343.83;130335;1268;98710;-76
2022/03/24 00:48:24;;;;;;;51.60;26.10;;;;;;;2.14;42.48;101349.80;130317;1268;112346;-76
2022/03/24 00:51:27;;;;;;;46.10;26.30;;;;;;;2.10;42.44;101348.61;130268;1268;112392;-77
2022/03/24 00:54:29;;;;;;;49.50;27.00;;;;;;;2.07;42.57;101349.22;130379;1268;99159;-77
2022/03/24 00:57:32;;;;;;;52.20;26.90;;;;;;;2.02;42.58;101346.33;130394;1267;97981;-76
2022/03/24 01:00:36;;;;;;;49.00;26.60;;;;;;;1.93;42.50;101345.83;130352;1267;99032;-76
2022/03/24 01:03:39;;;;;;;48.90;26.30;;;;;;;1.93;42.68;101348.84;130316;1268;111556;-77
2022/03/24 01:06:43;;;;;;;50.50;26.50;;;;;;;1.91;42.68;101343.49;130332;1268;112419;-76
2022/03/24 01:09:46;;;;;;;48.50;26.00;;;;;;;1.89;42.67;101344.98;130279;1267;112266;-77
2022/03/24 01:12:50;;;;;;;49.00;26.40;;;;;;;1.86;42.81;101347.07;130240;1268;99260;-78
2022/03/24 01:15:52;;;;;;;47.50;26.30;;;;;;;1.82;43.00;101346.36;130321;1267;111588;-78
2022/03/24 01:18:55;;;;;;;52.10;27.20;;;;;;;1.79;42.93;101347.56;130280;1268;97905;-78
2022/03/24 01:21:58;;;;;;;51.00;26.80;;;;;;;1.79;42.94;101345.11;130395;1268;97968;-78
2022/03/24 01:25:00;;;;;;;59.90;30.10;;;;;;;1.79;43.08;101347.75;130350;1268;97988;-77
2022/03/24 01:28:04;;;;;;;64.60;31.40;;;;;;;1.74;43.05;101351.09;130217;1268;98685;-71
2022/03/24 01:31:08;;;;;;;80.40;37.10;;;;;;;1.68;43.30;101349.08;130337;1268;98088;-74
2022/03/24 01:34:11;;;;;;;69.00;32.10;;;;;;;1.64;43.32;101352.61;130353;1268;112301;-72
2022/03/24 01:37:14;;;;;;;65.50;32.80;;;;;;;1.60;43.44;101352.81;130304;1268;97985;-73
2022/03/24 01:40:17;;;;;;;61.20;30.50;;;;;;;1.57;43.38;101351.36;130316;1268;111400;-72
2022/03/24 01:43:20;;;;;;;55.60;28.90;;;;;;;1.52;43.37;101354.20;130293;1268;99037;-72
2022/03/24 01:46:23;;;;;;;51.90;27.70;;;;;;;1.40;43.44;101350.14;130236;1270;116576;-72
2022/03/24 01:49:28;;;;;;;53.30;26.90;;;;;;;1.32;43.76;101346.48;130288;1268;98061;-73
2022/03/24 01:52:31;;;;;;;52.20;27.60;;;;;;;1.33;43.81;101347.67;130468;1268;112346;-73
2022/03/24 01:55:34;;;;;;;50.40;27.40;;;;;;;1.33;43.78;101347.48;130206;1268;98080;-75
2022/03/24 01:58:42;;;;;;;49.60;27.80;;;;;;;1.28;43.85;101349.30;130315;1268;112370;-72
2022/03/24 02:01:45;;;;;;;50.10;26.10;;;;;;;1.25;44.11;101345.23;130319;1268;112250;-73
2022/03/24 02:04:48;;;;;;;51.90;27.30;;;;;;;1.17;44.06;101346.93;130333;1268;111311;-72
2022/03/24 02:07:52;;;;;;;53.00;26.80;;;;;;;1.15;44.10;101349.29;130343;1268;112270;-72
2022/03/24 02:10:55;;;;;;;53.70;27.70;;;;;;;1.11;44.10;101350.52;130331;1268;112446;-73
2022/03/24 02:13:58;;;;;;;47.60;26.40;;;;;;;1.09;44.14;101353.27;130208;1268;98758;-72
2022/03/24 02:17:01;;;;;;;54.20;27.90;;;;;;;1.06;44.22;101353.04;130356;1268;98020;-72
2022/03/24 02:20:09;;;;;;;53.90;28.50;;;;;;;1.03;44.45;101354.23;130409;1268;98622;-73
2022/03/24 02:23:15;;;;;;;55.50;28.90;;;;;;;1.00;44.45;101352.75;130202;1268;112276;-74
2022/03/24 02:26:18;;;;;;;78.00;39.20;;;;;;;0.96;44.57;101353.97;130375;1268;112307;-72
2022/03/24 02:29:25;;;;;;;70.40;37.40;;;;;;;0.89;44.64;101352.15;130340;1268;99020;-74
2022/03/24 02:32:28;;;;;;;60.40;30.80;;;;;;;0.86;44.76;101355.09;130358;1268;112443;-71
2022/03/24 02:35:30;;;;;;;53.20;27.80;;;;;;;0.85;44.92;101357.23;130294;1268;99169;-71
2022/03/24 02:38:33;;;;;;;52.00;28.30;;;;;;;0.83;44.88;101362.58;130065;1268;97988;-71
2022/03/24 02:41:46;;;;;;;51.30;27.70;;;;;;;0.80;44.91;101360.27;130344;1267;97921;-71
2022/03/24 02:44:51;;;;;;;51.30;26.70;;;;;;;0.76;44.99;101363.20;130391;1268;112374;-71
2022/03/24 02:47:54;;;;;;;51.00;28.40;;;;;;;0.74;44.90;101365.35;130349;1268;111548;-69
2022/03/24 02:50:59;;;;;;;59.70;30.20;;;;;;;0.71;45.09;101364.13;129979;1268;98835;-73
2022/03/24 02:54:02;;;;;;;61.30;31.00;;;;;;;0.70;45.09;101369.95;130308;1268;111278;-70
2022/03/24 02:57:07;;;;;;;59.10;29.50;;;;;;;0.67;45.01;101365.83;130282;1268;112295;-71
2022/03/24 03:00:11;;;;;;;53.40;28.00;;;;;;;0.58;45.18;101369.00;130417;1268;112303;-72
2022/03/24 03:03:14;;;;;;;50.10;27.20;;;;;;;0.55;45.54;101367.02;130306;1268;111334;-73
2022/03/24 03:06:17;;;;;;;53.40;28.10;;;;;;;0.55;45.44;101367.91;130286;1268;99164;-71
2022/03/24 03:09:20;;;;;;;48.30;26.00;;;;;;;0.54;45.36;101367.75;130106;1267;97953;-70
2022/03/24 03:12:26;;;;;;;46.20;26.40;;;;;;;0.52;45.54;101369.78;130120;1268;98776;-71
2022/03/24 03:15:28;;;;;;;48.80;26.40;;;;;;;0.49;45.54;101369.55;130368;1267;112911;-71
2022/03/24 03:18:32;;;;;;;46.90;25.30;;;;;;;0.49;45.67;101370.80;130175;1268;98760;-71
2022/03/24 03:21:36;;;;;;;48.10;26.10;;;;;;;0.43;45.86;101371.86;130316;1268;112369;-71
2022/03/24 03:24:39;;;;;;;48.20;25.30;;;;;;;0.38;45.81;101376.79;130217;1268;112429;-69
2022/03/24 03:27:42;;;;;;;50.10;27.10;;;;;;;0.36;45.89;101380.73;130109;1268;112258;-69
2022/03/24 03:30:45;;;;;;;45.50;25.50;;;;;;;0.35;45.97;101382.17;130132;1268;99197;-72
2022/03/24 03:33:47;;;;;;;46.80;26.90;;;;;;;0.31;45.95;101381.44;130319;1268;97995;-71
2022/03/24 03:36:51;;;;;;;45.70;26.00;;;;;;;0.23;45.96;101379.48;130326;1268;98786;-71
2022/03/24 03:39:53;;;;;;;51.00;25.70;;;;;;;0.23;46.05;101382.99;130316;1267;97991;-72
2022/03/24 03:42:56;;;;;;;47.40;25.40;;;;;;;0.18;46.08;101379.48;130444;1268;99044;-72
2022/03/24 03:46:00;;;;;;;45.80;25.40;;;;;;;0.17;46.28;101380.95;130344;1268;98777;-72
2022/03/24 03:49:04;;;;;;;48.70;25.70;;;;;;;0.14;46.30;101379.30;130352;1268;112554;-72
2022/03/24 03:52:08;;;;;;;45.00;25.10;;;;;;;0.14;46.13;101377.89;130328;1268;112281;-72
2022/03/24 03:55:11;;;;;;;44.10;25.00;;;;;;;0.15;46.38;101381.73;130304;1268;112301;-71
2022/03/24 03:58:13;;;;;;;46.70;26.00;;;;;;;0.13;46.38;101383.19;130329;1267;97989;-71
2022/03/24 04:01:17;;;;;;;44.00;25.20;;;;;;;0.10;46.42;101386.45;130308;1268;98670;-72
2022/03/24 04:04:19;;;;;;;46.20;25.00;;;;;;;0.05;46.50;101379.66;130314;1268;97993;-74
2022/03/24 04:07:22;;;;;;;45.30;25.70;;;;;;;0.05;46.57;101374.92;130267;1268;97950;-70
2022/03/24 04:10:27;;;;;;;45.80;25.70;;;;;;;0.07;46.64;101372.75;130368;1268;97974;-75
2022/03/24 04:13:30;;;;;;;44.40;24.90;;;;;;;0.04;46.82;101375.67;130335;1268;112285;-75
2022/03/24 04:16:33;;;;;;;47.40;26.00;;;;;;;-0.01;46.81;101373.05;130513;1268;99255;-75
2022/03/24 04:19:35;;;;;;;46.10;25.20;;;;;;;-0.04;46.74;101372.11;130436;1267;98066;-74
2022/03/24 04:22:38;;;;;;;46.90;25.60;;;;;;;-0.05;46.67;101374.94;130466;1268;98878;-74
2022/03/24 04:25:42;;;;;;;46.00;25.50;;;;;;;-0.05;46.86;101378.11;130445;1268;97984;-72
2022/03/24 04:28:44;;;;;;;46.00;24.70;;;;;;;-0.07;46.89;101380.27;130406;1268;97969;-73
2022/03/24 04:31:47;;;;;;;46.40;25.80;;;;;;;-0.10;46.82;101384.42;130411;1268;99131;-72
2022/03/24 04:34:50;;;;;;;46.90;25.20;;;;;;;-0.13;46.99;101382.23;130347;1268;99151;-73
2022/03/24 04:37:53;;;;;;;43.30;25.10;;;;;;;-0.10;46.81;101387.56;130332;1268;97978;-73
2022/03/24 04:40:57;;;;;;;48.70;26.60;;;;;;;-0.09;46.91;101386.29;130445;1268;99157;-74
2022/03/24 04:43:59;;;;;;;51.10;27.70;;;;;;;-0.08;46.92;101385.73;130245;1268;99257;-73
2022/03/24 04:47:02;;;;;;;48.50;25.90;;;;;;;-0.06;47.11;101385.83;130392;1268;110868;-73
2022/03/24 04:50:07;;;;;;;44.80;25.60;;;;;;;-0.03;47.25;101380.46;130361;1268;98156;-73
2022/03/24 04:53:13;;;;;;;46.00;25.90;;;;;;;0.02;47.11;101386.42;130364;1268;112131;-72
2022/03/24 04:56:16;;;;;;;49.60;26.60;;;;;;;0.05;47.30;101387.16;130304;1268;112314;-75
2022/03/24 04:59:19;;;;;;;49.90;27.30;;;;;;;0.07;47.30;101389.00;130348;1268;97981;-74
2022/03/24 05:02:22;;;;;;;48.80;27.80;;;;;;;0.11;47.47;101385.90;130320;1268;97970;-72
2022/03/24 05:05:25;;;;;;;47.80;27.20;;;;;;;0.15;47.39;101385.73;130349;1268;99066;-72
2022/03/24 05:08:28;;;;;;;49.00;27.50;;;;;;;0.19;47.47;101387.16;130341;1268;97980;-71
2022/03/24 05:11:30;;;;;;;46.70;26.30;;;;;;;0.25;47.50;101387.78;130297;1268;98759;-73
2022/03/24 05:14:34;;;;;;;49.30;25.40;;;;;;;0.32;47.61;101391.73;130364;1268;99247;-71
2022/03/24 05:17:37;;;;;;;51.50;27.90;;;;;;;0.36;47.63;101392.95;130417;1268;98038;-71
2022/03/24 05:20:39;;;;;;;47.90;26.30;;;;;;;0.40;47.71;101395.27;130334;1268;98089;-73
2022/03/24 05:23:42;;;;;;;48.40;27.20;;;;;;;0.44;47.70;101397.40;130318;1268;97987;-72
2022/03/24 05:26:45;;;;;;;51.10;27.80;;;;;;;0.51;47.87;101392.21;130321;1268;97978;-72
2022/03/24 05:29:48;;;;;;;49.20;28.60;;;;;;;0.60;48.18;101395.20;130283;1268;97988;-73
2022/03/24 05:32:50;;;;;;;51.40;29.00;;;;;;;0.69;48.19;101395.34;130321;1268;98754;-72
2022/03/24 05:35:53;;;;;;;50.60;28.50;;;;;;;0.78;48.19;101392.74;130306;1268;97976;-73
2022/03/24 05:38:56;;;;;;;50.00;28.10;;;;;;;0.88;48.25;101395.13;130375;1268;98876;-73
2022/03/24 05:41:59;;;;;;;50.10;27.20;;;;;;;0.98;48.43;101399.45;130367;1268;98055;-72
2022/03/24 05:45:01;;;;;;;53.80;29.60;;;;;;;1.05;48.46;101400.35;130429;1268;98850;-72
2022/03/24 05:48:05;;;;;;;52.60;29.60;;;;;;;1.12;48.58;101401.11;130341;1268;108634;-71
2022/03/24 05:51:23;;;;;;;52.00;28.70;;;;;;;1.24;48.78;101399.61;130401;1268;108692;-75
2022/03/24 05:54:26;;;;;;;52.90;30.80;;;;;;;1.36;48.92;101401.53;130296;1271;108815;-74
2022/03/24 05:57:28;;;;;;;54.20;31.20;;;;;;;1.48;49.03;101406.60;130301;1271;98410;-75
2022/03/24 06:00:31;;;;;;;53.90;30.80;;;;;;;1.58;48.95;101411.77;130306;1271;99180;-74
2022/03/24 06:03:35;;;;;;;53.40;30.30;;;;;;;1.71;49.02;101415.44;130356;1271;99129;-73
2022/03/24 06:06:38;;;;;;;55.60;30.70;;;;;;;1.77;49.10;101414.98;130384;1271;107856;-73
2022/03/24 06:09:41;;;;;;;53.00;31.10;;;;;;;1.78;49.49;101414.09;130296;1268;98528;-74
2022/03/24 06:12:46;;;;;;;58.30;31.80;;;;;;;1.84;49.89;101414.35;130273;1270;99063;-72
2022/03/24 06:15:50;;;;;;;58.90;35.00;;;;;;;1.92;50.09;101418.39;130252;1271;108677;-74
2022/03/24 06:18:53;;;;;;;66.20;38.80;;;;;;;2.11;50.75;101418.92;130236;1269;109153;-75
2022/03/24 06:21:55;;;;;;;67.60;41.00;;;;;;;2.30;51.89;101419.44;130193;1271;98545;-74
2022/03/24 06:24:58;;;;;;;68.30;40.20;;;;;;;2.47;51.88;101422.34;130491;1268;98093;-73
2022/03/24 06:28:01;;;;;;;71.80;41.80;;;;;;;2.62;52.20;101421.45;130375;1268;99135;-73
2022/03/24 06:31:05;;;;;;;72.20;41.20;;;;;;;2.76;52.97;101423.59;130359;1268;98020;-75
2022/03/24 06:34:08;;;;;;;65.90;38.00;;;;;;;2.89;53.28;101420.69;130198;1268;98036;-73
2022/03/24 06:37:11;;;;;;;78.30;42.50;;;;;;;2.99;53.31;101422.50;130352;1268;99210;-71
2022/03/24 06:40:14;;;;;;;75.30;43.10;;;;;;;3.10;53.88;101424.05;130323;1268;108702;-71
2022/03/24 06:43:17;;;;;;;66.20;37.30;;;;;;;3.25;54.14;101427.03;130350;1268;99246;-70
2022/03/24 06:46:19;;;;;;;70.80;41.10;;;;;;;3.41;54.72;101424.45;130074;1271;97964;-70
2022/03/24 06:49:22;;;;;;;75.50;42.50;;;;;;;3.60;54.22;101426.98;130012;1271;98744;-71
2022/03/24 06:52:26;;;;;;;70.00;41.30;;;;;;;3.76;53.83;101426.86;130321;1271;97976;-71
2022/03/24 06:55:29;;;;;;;72.00;42.60;;;;;;;3.92;54.65;101430.61;130800;1271;108618;-70
2022/03/24 06:58:32;;;;;;;66.60;40.70;;;;;;;4.03;54.43;101437.94;130090;1271;97997;-70
2022/03/24 07:01:34;;;;;;;67.40;39.60;;;;;;;4.07;53.38;101437.55;129766;1271;99174;-69
2022/03/24 07:04:37;;;;;;;69.20;39.60;;;;;;;4.15;53.89;101440.98;130080;1271;97981;-70
2022/03/24 07:07:41;;;;;;;62.10;38.80;;;;;;;4.25;53.69;101438.14;129981;1271;99694;-70
2022/03/24 07:10:44;;;;;;;59.60;37.50;;;;;;;4.32;53.36;101438.13;129958;1271;99154;-70
2022/03/24 07:13:46;;;;;;;62.80;38.10;;;;;;;4.39;54.15;101436.88;129965;1271;98003;-72
2022/03/24 07:16:49;;;;;;;60.40;37.60;;;;;;;4.45;53.33;101442.86;129999;1271;99174;-70
2022/03/24 07:19:52;;;;;;;59.30;37.40;;;;;;;4.57;53.23;101443.15;130063;1271;98096;-70
2022/03/24 07:22:57;;;;;;;58.10;37.20;;;;;;;4.66;53.70;101439.29;129968;1269;98810;-70
2022/03/24 07:26:00;;;;;;;58.00;37.20;;;;;;;4.77;53.29;101440.60;129952;1271;108659;-70
2022/03/24 07:29:03;;;;;;;59.00;35.40;;;;;;;4.87;52.79;101439.16;130165;1271;98087;-71
2022/03/24 07:32:08;;;;;;;54.90;34.00;;;;;;;4.96;52.74;101437.39;130170;1271;98061;-70
2022/03/24 07:35:14;;;;;;;56.80;35.40;;;;;;;5.06;52.75;101435.23;130042;1271;108754;-71
2022/03/24 07:38:17;;;;;;;52.50;31.90;;;;;;;5.17;51.85;101433.23;129804;1271;109447;-69
2022/03/24 07:41:21;;;;;;;50.50;31.50;;;;;;;5.27;52.70;101434.57;129927;1270;97954;-71
2022/03/24 07:44:24;;;;;;;49.70;32.10;;;;;;;5.35;52.79;101431.61;130272;1269;108663;-70
2022/03/24 07:47:30;;;;;;;48.40;29.20;;;;;;;5.43;51.97;101431.29;130167;1271;97982;-70
2022/03/24 07:50:32;;;;;;;42.50;28.70;;;;;;;5.56;51.56;101434.08;129971;1268;108680;-71
2022/03/24 07:53:52;;;;;;;41.00;28.10;;;;;;;5.71;51.74;101433.20;130383;1268;97997;-70
2022/03/24 07:56:55;;;;;;;43.40;27.80;;;;;;;5.85;51.49;101434.79;130325;1268;108010;-70
2022/03/24 07:59:58;;;;;;;43.10;29.40;;;;;;;5.98;51.38;101430.50;130289;1268;97982;-70
2022/03/24 08:03:01;;;;;;;47.80;31.00;;;;;;;6.12;51.62;101435.33;130110;1268;108992;-70
2022/03/24 08:06:05;;;;;;;46.20;31.00;;;;;;;6.21;52.08;101434.02;129954;1268;98123;-70
2022/03/24 08:09:08;;;;;;;44.10;29.80;;;;;;;6.33;51.46;101430.31;130084;1267;107189;-70
2022/03/24 08:12:11;;;;;;;46.10;29.20;;;;;;;6.45;51.01;101428.14;130279;1268;98751;-70
2022/03/24 08:15:14;;;;;;;47.20;28.70;;;;;;;6.58;51.23;101432.08;130325;1268;108634;-72
2022/03/24 08:18:18;;;;;;;38.10;25.30;;;;;;;6.68;51.23;101437.77;130002;1268;99052;-71
2022/03/24 08:21:20;;;;;;;36.30;24.90;;;;;;;6.78;51.37;101440.71;130087;1268;108667;-70
2022/03/24 08:24:23;;;;;;;29.10;19.40;;;;;;;6.83;50.93;101440.19;130132;1268;98623;-69
2022/03/24 08:27:26;;;;;;;29.40;19.90;;;;;;;6.92;50.64;101432.70;130006;1268;99152;-72
2022/03/24 08:30:29;;;;;;;24.30;16.80;;;;;;;7.05;50.47;101430.61;130312;1268;97961;-70
2022/03/24 08:33:32;;;;;;;25.00;16.50;;;;;;;7.18;50.63;101427.30;130027;1268;98773;-69
2022/03/24 08:36:35;;;;;;;20.10;14.40;;;;;;;7.26;50.21;101427.96;130004;1268;98434;-70
2022/03/24 08:39:38;;;;;;;17.40;11.90;;;;;;;7.32;49.72;101428.44;130358;1268;99285;-69
2022/03/24 08:42:44;;;;;;;20.00;14.10;;;;;;;7.41;49.40;101430.49;129975;1267;99162;-70
2022/03/24 08:45:46;;;;;;;18.50;12.50;;;;;;;7.46;49.40;101426.59;130164;1267;108926;-69
2022/03/24 08:48:49;;;;;;;17.60;11.40;;;;;;;7.54;49.34;101423.45;130064;1270;98803;-70
2022/03/24 08:51:52;;;;;;;14.70;9.10;;;;;;;7.63;48.59;101420.91;129981;1270;97975;-69
2022/03/24 08:54:55;;;;;;;17.70;11.20;;;;;;;7.67;47.50;101423.05;129966;1270;98373;-70
2022/03/24 08:57:58;;;;;;;17.30;12.50;;;;;;;7.75;48.44;101418.98;130014;1270;97989;-70
2022/03/24 09:01:00;;;;;;;20.30;14.40;;;;;;;7.85;48.31;101418.27;130207;1270;97995;-70
2022/03/24 09:04:03;;;;;;;21.80;12.60;;;;;;;7.97;48.54;101418.17;129928;1270;98757;-70
2022/03/24 09:07:06;;;;;;;21.60;13.80;;;;;;;8.07;47.74;101420.82;130313;1268;98011;-70
2022/03/24 09:10:12;;;;;;;18.90;13.70;;;;;;;8.16;47.73;101422.16;130101;1268;99180;-71
2022/03/24 09:13:15;;;;;;;23.30;16.20;;;;;;;8.25;47.86;101420.80;130387;1268;108843;-70
2022/03/24 09:16:18;;;;;;;23.60;15.40;;;;;;;8.34;48.18;101420.16;130423;1267;98507;-71
2022/03/24 09:19:20;;;;;;;22.00;15.70;;;;;;;8.45;48.09;101419.73;130418;1268;101505;-71
2022/03/24 09:22:23;;;;;;;21.00;14.60;;;;;;;8.53;46.93;101425.23;130395;1268;97978;-73
2022/03/24 09:25:26;;;;;;;23.70;15.60;;;;;;;8.58;47.17;101424.63;130382;1268;98750;-71
2022/03/24 09:28:28;;;;;;;22.80;16.20;;;;;;;8.66;47.31;101418.63;130307;1268;99132;-71
2022/03/24 09:31:31;;;;;;;22.80;15.40;;;;;;;8.73;46.78;101419.02;130356;1268;98041;-68
2022/03/24 09:34:34;;;;;;;21.20;14.80;;;;;;;8.80;46.52;101415.10;130052;1268;99265;-70
2022/03/24 09:37:36;;;;;;;18.30;13.70;;;;;;;8.83;46.09;101418.21;130172;1268;98044;-72
2022/03/24 09:40:40;;;;;;;24.50;14.90;;;;;;;8.88;46.55;101407.58;130281;1270;99183;-68
2022/03/24 09:43:44;;;;;;;22.90;15.90;;;;;;;8.95;46.48;101415.23;130212;1268;98074;-68
2022/03/24 09:46:47;;;;;;;23.70;15.90;;;;;;;9.02;46.50;101409.90;130014;1269;98026;-69
2022/03/24 09:49:53;;;;;;;18.90;13.10;;;;;;;9.08;46.70;101408.98;129952;1271;98806;-73
2022/03/24 09:52:59;;;;;;;17.80;12.70;;;;;;;9.15;46.18;101410.34;130037;1267;98036;-71
2022/03/24 09:56:02;;;;;;;19.30;14.00;;;;;;;9.22;45.54;101409.50;130181;1270;99258;-71
2022/03/24 09:59:07;;;;;;;18.80;13.50;;;;;;;9.25;46.08;101407.65;130157;1270;98831;-71
2022/03/24 10:02:10;;;;;;;21.40;14.10;;;;;;;9.36;45.82;101411.95;130272;1270;98168;-71
2022/03/24 10:05:19;;;;;;;14.80;10.60;;;;;;;9.44;44.60;101410.67;130135;1271;98105;-71
2022/03/24 10:08:22;;;;;;;15.30;10.60;;;;;;;9.47;44.01;101413.66;130285;1270;98071;-71
2022/03/24 10:11:26;;;;;;;15.20;11.00;;;;;;;9.51;43.91;101415.67;130324;1268;99070;-72
2022/03/24 10:14:29;;;;;;;13.80;10.20;;;;;;;9.58;43.99;101407.48;130601;1268;98056;-72
2022/03/24 10:17:32;;;;;;;15.60;10.30;;;;;;;9.68;44.15;101404.40;130251;1268;99057;-72
2022/03/24 10:20:35;;;;;;;17.10;11.80;;;;;;;9.77;44.40;101405.05;130310;1268;98774;-71
2022/03/24 10:23:45;;;;;;;17.00;11.00;;;;;;;9.84;43.77;101402.96;130354;1268;99129;-70
2022/03/24 10:26:50;;;;;;;16.30;11.10;;;;;;;9.94;44.40;101401.86;130388;1268;99197;-70
2022/03/24 10:29:56;;;;;;;14.80;9.50;;;;;;;9.99;42.75;101401.61;130301;1267;97985;-71
2022/03/24 10:32:59;;;;;;;12.50;9.00;;;;;;;10.00;42.10;101407.75;130300;1268;97983;-73
2022/03/24 10:36:12;;;;;;;12.80;8.40;;;;;;;10.03;42.94;101397.88;130082;1268;97973;-71
2022/03/24 10:39:15;;;;;;;13.20;9.10;;;;;;;10.10;42.64;101396.86;130319;1268;98096;-71
2022/03/24 10:42:20;;;;;;;12.30;8.40;;;;;;;10.20;42.06;101396.01;130314;1267;99314;-71
2022/03/24 10:45:23;;;;;;;14.00;9.00;;;;;;;10.25;41.46;101393.67;130334;1268;98596;-72
2022/03/24 10:48:25;;;;;;;13.00;9.60;;;;;;;10.27;41.45;101390.13;130434;1268;98779;-71
2022/03/24 10:51:31;;;;;;;11.30;8.80;;;;;;;10.32;41.55;101388.34;130281;1267;97988;-72
2022/03/24 10:54:46;;;;;;;12.10;8.10;;;;;;;10.42;40.74;101393.61;130190;1270;97979;-72
2022/03/24 10:57:48;;;;;;;13.00;9.20;;;;;;;10.47;41.20;101388.38;130261;1270;98160;-71
2022/03/24 11:00:55;;;;;;;13.10;9.00;;;;;;;10.52;40.93;101385.30;130245;1270;98677;-72
2022/03/24 11:03:58;;;;;;;14.10;9.30;;;;;;;10.55;41.40;101380.26;130296;1270;97982;-71
2022/03/24 11:07:01;;;;;;;12.10;9.10;;;;;;;10.59;40.63;101377.63;130294;1269;97968;-71
2022/03/24 11:10:12;;;;;;;13.80;10.30;;;;;;;10.56;40.21;101377.70;130241;1270;97976;-72
2022/03/24 11:13:28;;;;;;;14.00;10.10;;;;;;;10.63;40.88;101378.39;130457;1270;98169;-71
2022/03/24 11:16:32;;;;;;;16.10;10.40;;;;;;;10.72;41.30;101368.70;130321;1268;97956;-71
2022/03/24 11:19:39;;;;;;;15.00;10.60;;;;;;;10.73;40.43;101368.16;130238;1269;98001;-72
2022/03/24 11:22:46;;;;;;;15.70;9.90;;;;;;;10.75;40.95;101364.38;130200;1269;98149;-71
2022/03/24 11:25:53;;;;;;;15.80;9.80;;;;;;;10.85;40.28;101360.70;130269;1270;97985;-71
2022/03/24 11:29:03;;;;;;;17.00;10.60;;;;;;;10.87;40.66;101357.84;130376;1269;98068;-71
2022/03/24 11:32:07;;;;;;;13.90;9.50;;;;;;;10.90;40.71;101348.17;130303;1270;98033;-72
2022/03/24 11:35:12;;;;;;;15.20;9.80;;;;;;;11.01;40.40;101348.34;130274;1269;99146;-70
2022/03/24 11:38:15;;;;;;;14.90;10.00;;;;;;;11.11;39.73;101346.25;130082;1270;98641;-73
2022/03/24 11:41:24;;;;;;;15.10;10.30;;;;;;;11.15;40.13;101345.77;129912;1270;97966;-70
2022/03/24 11:44:43;;;;;;;14.10;10.00;;;;;;;11.17;39.75;101340.95;130350;1270;98745;-71
2022/03/24 11:47:55;;;;;;;14.10;10.60;;;;;;;11.17;39.03;101344.80;130270;1270;98778;-72
2022/03/24 11:50:58;;;;;;;19.20;12.70;;;;;;;11.16;39.08;101337.81;130306;1269;99697;-73
2022/03/24 11:54:02;;;;;;;15.10;10.60;;;;;;;11.19;39.34;101332.06;130126;1270;98016;-75
2022/03/24 11:57:27;;;;;;;15.80;10.80;;;;;;;11.24;39.64;101328.77;130420;1270;98754;-73
2022/03/24 12:00:46;;;;;;;15.40;10.70;;;;;;;11.32;38.64;101325.39;130338;1267;98677;-73
2022/03/24 12:03:59;;;;;;;15.00;10.60;;;;;;;11.37;39.15;101320.91;130325;1268;98509;-73
2022/03/24 12:07:03;;;;;;;15.90;10.80;;;;;;;11.39;38.51;101320.52;130272;1268;98792;-72
2022/03/24 12:10:08;;;;;;;14.10;9.30;;;;;;;11.42;38.79;101313.89;130377;1268;98767;-72
2022/03/24 12:13:21;;;;;;;13.10;8.70;;;;;;;11.47;38.67;101312.04;130459;1268;97973;-70
2022/03/24 12:16:26;;;;;;;13.50;9.40;;;;;;;11.56;38.83;101305.89;130379;1268;97957;-71
2022/03/24 12:19:46;;;;;;;12.50;8.70;;;;;;;11.66;38.26;101303.77;130852;1269;97885;-70
2022/03/24 12:22:50;;;;;;;14.40;9.10;;;;;;;11.70;37.14;101305.70;130612;1269;180698;-70
2022/03/24 12:26:11;;;;;;;13.40;9.10;;;;;;;11.70;38.16;101298.02;130363;1270;98220;-71
2022/03/24 12:29:19;;;;;;;15.60;9.50;;;;;;;11.75;37.37;101291.88;130494;1269;97971;-70
2022/03/24 12:32:28;;;;;;;15.60;9.70;;;;;;;11.75;37.01;101289.00;130671;1270;98058;-73
2022/03/24 12:35:43;;;;;;;18.60;10.20;;;;;;;11.79;37.30;101287.46;130893;1270;98058;-70
2022/03/24 12:38:55;;;;;;;21.60;12.80;;;;;;;11.86;37.00;101284.54;130323;1269;98884;-74
2022/03/24 12:42:06;;;;;;;14.90;9.30;;;;;;;11.89;36.72;101279.64;130723;1268;97966;-73
2022/03/24 12:45:10;;;;;;;22.80;14.20;;;;;;;11.95;36.11;101289.26;130831;1270;98171;-70
2022/03/24 12:48:14;;;;;;;13.60;9.80;;;;;;;11.99;36.76;101277.67;130018;1268;98026;-73
2022/03/24 12:51:19;;;;;;;69.70;30.50;;;;;;;12.08;36.23;101276.38;130373;1270;99181;-71
2022/03/24 12:54:23;;;;;;;17.20;10.40;;;;;;;12.11;36.71;101274.67;130268;1269;98222;-70
2022/03/24 12:57:30;;;;;;;13.30;8.80;;;;;;;12.11;36.39;101272.66;130330;1270;97995;-74
2022/03/24 13:00:35;;;;;;;13.70;9.00;;;;;;;12.13;36.03;101270.38;130842;1268;99210;-71
2022/03/24 13:03:38;;;;;;;13.70;8.80;;;;;;;12.17;35.30;101268.55;130864;1268;99174;-71
2022/03/24 13:06:41;;;;;;;13.70;8.70;;;;;;;12.21;35.90;101264.89;130760;1270;97962;-71
2022/03/24 13:09:44;;;;;;;12.00;8.80;;;;;;;12.22;35.65;101263.32;132329;1269;98779;-72
2022/03/24 13:12:48;;;;;;;12.30;7.80;;;;;;;12.27;35.29;101263.27;132210;1270;98436;-72
2022/03/24 13:15:52;;;;;;;11.90;7.50;;;;;;;12.33;34.78;101259.50;130846;1270;98022;-70
2022/03/24 13:18:55;;;;;;;11.50;7.60;;;;;;;12.41;35.14;101259.11;130846;1269;97932;-72
2022/03/24 13:22:10;;;;;;;12.00;7.70;;;;;;;12.43;35.06;101256.46;130871;1270;99151;-72
2022/03/24 13:25:13;;;;;;;13.60;8.00;;;;;;;12.42;34.17;101259.02;130704;1268;101082;-71
2022/03/24 13:28:16;;;;;;;13.80;7.70;;;;;;;12.39;34.85;101254.83;130589;1268;98004;-71
2022/03/24 13:31:19;;;;;;;11.80;7.20;;;;;;;12.38;35.39;101244.58;130699;1268;98531;-72
2022/03/24 13:34:25;;;;;;;13.20;8.20;;;;;;;12.45;35.44;101246.13;130932;1270;99032;-71
2022/03/24 13:37:35;;;;;;;12.90;8.00;;;;;;;12.51;34.44;101240.52;130597;1269;99182;-76
2022/03/24 13:40:43;;;;;;;33.60;16.80;;;;;;;12.55;35.63;101242.44;131010;1269;98752;-71
2022/03/24 13:43:46;;;;;;;16.80;9.30;;;;;;;12.60;34.93;101238.87;131943;1269;98690;-73
2022/03/24 13:46:48;;;;;;;14.20;9.10;;;;;;;12.63;35.05;101239.50;130810;1270;97965;-72
2022/03/24 13:49:56;;;;;;;13.30;8.10;;;;;;;12.64;34.53;101235.27;131771;1269;99195;-72
2022/03/24 13:53:00;;;;;;;16.50;8.90;;;;;;;12.63;34.64;101233.58;130706;1270;97936;-72
2022/03/24 13:56:08;;;;;;;16.30;11.70;;;;;;;12.60;34.33;101229.73;130635;1270;98035;-71